sensor_id;sensor_type;location;lat;lon;timestamp;P1;durP1;ratioP1;P2;durP2;ratioP2
22024;SDS011;11176;51.448;6.650;2022-11-13T00:02:17;40.42;;;28.05;;
22024;SDS011;11176;51.448;6.650;2022-11-13T00:05:02;36.80;;;28.00;;
22024;SDS011;11176;51.448;6.650;2022-11-13T00:07:48;36.90;;;27.83;;
22024;SDS011;11176;51.448;6.650;2022-11-13T00:10:33;38.47;;;28.38;;
22024;SDS011;11176;51.448;6.650;2022-11-13T00:13:18;39.03;;;28.38;;
22024;SDS011;11176;51.448;6.650;2022-11-13T00:16:08;39.50;;;28.15;;
22024;SDS011;11176;51.448;6.650;2022-11-13T00:18:55;38.30;;;26.52;;
22024;SDS011;11176;51.448;6.650;2022-11-13T00:21:40;38.25;;;27.15;;
22024;SDS011;11176;51.448;6.650;2022-11-13T00:24:25;35.58;;;27.17;;
22024;SDS011;11176;51.448;6.650;2022-11-13T00:27:10;39.22;;;28.55;;
22024;SDS011;11176;51.448;6.650;2022-11-13T00:29:56;35.70;;;26.88;;
22024;SDS011;11176;51.448;6.650;2022-11-13T00:32:41;36.85;;;26.52;;
22024;SDS011;11176;51.448;6.650;2022-11-13T00:35:26;41.03;;;27.70;;
22024;SDS011;11176;51.448;6.650;2022-11-13T00:38:11;37.80;;;28.17;;
22024;SDS011;11176;51.448;6.650;2022-11-13T00:40:56;40.28;;;27.80;;
22024;SDS011;11176;51.448;6.650;2022-11-13T00:43:42;37.13;;;27.92;;
22024;SDS011;11176;51.448;6.650;2022-11-13T00:46:27;38.92;;;28.10;;
22024;SDS011;11176;51.448;6.650;2022-11-13T00:49:12;38.20;;;27.48;;
22024;SDS011;11176;51.448;6.650;2022-11-13T00:51:57;42.53;;;29.25;;
22024;SDS011;11176;51.448;6.650;2022-11-13T00:54:44;37.00;;;27.45;;
22024;SDS011;11176;51.448;6.650;2022-11-13T00:57:28;41.75;;;28.58;;
22024;SDS011;11176;51.448;6.650;2022-11-13T01:00:14;38.45;;;28.77;;
22024;SDS011;11176;51.448;6.650;2022-11-13T01:02:59;39.10;;;28.27;;
22024;SDS011;11176;51.448;6.650;2022-11-13T01:05:44;42.38;;;29.02;;
22024;SDS011;11176;51.448;6.650;2022-11-13T01:08:30;39.65;;;29.40;;
22024;SDS011;11176;51.448;6.650;2022-11-13T01:11:16;39.83;;;28.58;;
22024;SDS011;11176;51.448;6.650;2022-11-13T01:14:03;44.97;;;29.25;;
22024;SDS011;11176;51.448;6.650;2022-11-13T01:16:48;38.35;;;27.70;;
22024;SDS011;11176;51.448;6.650;2022-11-13T01:19:33;42.20;;;29.80;;
22024;SDS011;11176;51.448;6.650;2022-11-13T01:22:18;42.33;;;28.52;;
22024;SDS011;11176;51.448;6.650;2022-11-13T01:25:03;41.28;;;27.95;;
22024;SDS011;11176;51.448;6.650;2022-11-13T01:27:49;37.83;;;26.88;;
22024;SDS011;11176;51.448;6.650;2022-11-13T01:30:34;40.00;;;28.98;;
22024;SDS011;11176;51.448;6.650;2022-11-13T01:33:19;40.88;;;30.45;;
22024;SDS011;11176;51.448;6.650;2022-11-13T01:36:09;38.47;;;29.33;;
22024;SDS011;11176;51.448;6.650;2022-11-13T01:38:56;38.45;;;28.63;;
22024;SDS011;11176;51.448;6.650;2022-11-13T01:41:41;43.97;;;30.25;;
22024;SDS011;11176;51.448;6.650;2022-11-13T01:44:43;43.95;;;30.73;;
22024;SDS011;11176;51.448;6.650;2022-11-13T01:47:33;39.78;;;28.65;;
22024;SDS011;11176;51.448;6.650;2022-11-13T01:50:19;39.10;;;28.63;;
22024;SDS011;11176;51.448;6.650;2022-11-13T01:53:04;42.55;;;29.83;;
22024;SDS011;11176;51.448;6.650;2022-11-13T01:55:50;40.95;;;29.25;;
22024;SDS011;11176;51.448;6.650;2022-11-13T01:58:36;44.90;;;30.63;;
22024;SDS011;11176;51.448;6.650;2022-11-13T02:01:22;44.30;;;29.70;;
22024;SDS011;11176;51.448;6.650;2022-11-13T02:04:07;40.42;;;29.50;;
22024;SDS011;11176;51.448;6.650;2022-11-13T02:06:53;43.08;;;29.88;;
22024;SDS011;11176;51.448;6.650;2022-11-13T02:09:42;41.88;;;30.83;;
22024;SDS011;11176;51.448;6.650;2022-11-13T02:12:33;40.35;;;29.00;;
22024;SDS011;11176;51.448;6.650;2022-11-13T02:15:22;42.83;;;29.27;;
22024;SDS011;11176;51.448;6.650;2022-11-13T02:18:09;41.00;;;29.17;;
22024;SDS011;11176;51.448;6.650;2022-11-13T02:23:47;40.53;;;27.98;;
22024;SDS011;11176;51.448;6.650;2022-11-13T02:26:34;38.50;;;27.05;;
22024;SDS011;11176;51.448;6.650;2022-11-13T02:29:21;32.67;;;24.70;;
22024;SDS011;11176;51.448;6.650;2022-11-13T02:32:06;34.30;;;24.58;;
22024;SDS011;11176;51.448;6.650;2022-11-13T02:34:51;34.70;;;24.33;;
22024;SDS011;11176;51.448;6.650;2022-11-13T02:37:36;29.52;;;22.38;;
22024;SDS011;11176;51.448;6.650;2022-11-13T02:40:21;29.52;;;20.90;;
22024;SDS011;11176;51.448;6.650;2022-11-13T02:43:07;28.95;;;20.30;;
22024;SDS011;11176;51.448;6.650;2022-11-13T02:45:53;23.55;;;17.58;;
22024;SDS011;11176;51.448;6.650;2022-11-13T02:48:38;22.25;;;15.88;;
22024;SDS011;11176;51.448;6.650;2022-11-13T02:51:23;16.75;;;13.20;;
22024;SDS011;11176;51.448;6.650;2022-11-13T02:54:08;19.00;;;13.82;;
22024;SDS011;11176;51.448;6.650;2022-11-13T02:57:00;18.73;;;12.00;;
22024;SDS011;11176;51.448;6.650;2022-11-13T02:59:45;15.48;;;11.25;;
22024;SDS011;11176;51.448;6.650;2022-11-13T03:02:30;18.17;;;10.93;;
22024;SDS011;11176;51.448;6.650;2022-11-13T03:05:15;13.45;;;9.65;;
22024;SDS011;11176;51.448;6.650;2022-11-13T03:08:00;14.50;;;9.60;;
22024;SDS011;11176;51.448;6.650;2022-11-13T03:10:45;11.93;;;8.88;;
22024;SDS011;11176;51.448;6.650;2022-11-13T03:13:30;12.27;;;8.88;;
22024;SDS011;11176;51.448;6.650;2022-11-13T03:16:15;11.77;;;8.68;;
22024;SDS011;11176;51.448;6.650;2022-11-13T03:19:02;13.13;;;9.07;;
22024;SDS011;11176;51.448;6.650;2022-11-13T03:21:47;11.95;;;8.82;;
22024;SDS011;11176;51.448;6.650;2022-11-13T03:24:32;11.95;;;8.10;;
22024;SDS011;11176;51.448;6.650;2022-11-13T03:27:18;13.02;;;8.52;;
22024;SDS011;11176;51.448;6.650;2022-11-13T03:30:03;10.80;;;7.80;;
22024;SDS011;11176;51.448;6.650;2022-11-13T03:32:55;10.98;;;8.45;;
22024;SDS011;11176;51.448;6.650;2022-11-13T03:35:41;14.18;;;8.48;;
22024;SDS011;11176;51.448;6.650;2022-11-13T03:38:32;13.43;;;8.45;;
22024;SDS011;11176;51.448;6.650;2022-11-13T03:41:18;11.20;;;8.07;;
22024;SDS011;11176;51.448;6.650;2022-11-13T03:44:03;13.35;;;8.63;;
22024;SDS011;11176;51.448;6.650;2022-11-13T03:46:48;12.43;;;8.63;;
22024;SDS011;11176;51.448;6.650;2022-11-13T03:49:33;14.13;;;8.93;;
22024;SDS011;11176;51.448;6.650;2022-11-13T03:52:18;11.52;;;8.50;;
22024;SDS011;11176;51.448;6.650;2022-11-13T03:55:03;11.80;;;8.07;;
22024;SDS011;11176;51.448;6.650;2022-11-13T03:57:48;11.68;;;8.35;;
22024;SDS011;11176;51.448;6.650;2022-11-13T04:00:33;14.25;;;8.32;;
22024;SDS011;11176;51.448;6.650;2022-11-13T04:03:19;12.48;;;8.15;;
22024;SDS011;11176;51.448;6.650;2022-11-13T04:06:04;12.57;;;8.30;;
22024;SDS011;11176;51.448;6.650;2022-11-13T04:08:49;12.75;;;8.02;;
22024;SDS011;11176;51.448;6.650;2022-11-13T04:11:34;11.82;;;8.15;;
22024;SDS011;11176;51.448;6.650;2022-11-13T04:14:19;12.60;;;9.07;;
22024;SDS011;11176;51.448;6.650;2022-11-13T04:17:04;11.38;;;8.10;;
22024;SDS011;11176;51.448;6.650;2022-11-13T04:19:49;12.10;;;8.35;;
22024;SDS011;11176;51.448;6.650;2022-11-13T04:22:34;12.45;;;8.45;;
22024;SDS011;11176;51.448;6.650;2022-11-13T04:25:19;11.63;;;8.10;;
22024;SDS011;11176;51.448;6.650;2022-11-13T04:28:05;10.45;;;7.88;;
22024;SDS011;11176;51.448;6.650;2022-11-13T04:30:51;13.80;;;8.15;;
22024;SDS011;11176;51.448;6.650;2022-11-13T04:33:37;11.65;;;8.07;;
22024;SDS011;11176;51.448;6.650;2022-11-13T04:36:22;12.65;;;8.05;;
22024;SDS011;11176;51.448;6.650;2022-11-13T04:39:07;11.02;;;8.27;;
22024;SDS011;11176;51.448;6.650;2022-11-13T04:41:52;12.25;;;7.93;;
22024;SDS011;11176;51.448;6.650;2022-11-13T04:44:56;10.82;;;7.63;;
22024;SDS011;11176;51.448;6.650;2022-11-13T04:47:41;10.80;;;7.88;;
22024;SDS011;11176;51.448;6.650;2022-11-13T04:50:27;10.73;;;8.07;;
22024;SDS011;11176;51.448;6.650;2022-11-13T04:53:12;13.88;;;8.35;;
22024;SDS011;11176;51.448;6.650;2022-11-13T04:55:57;12.05;;;8.15;;
22024;SDS011;11176;51.448;6.650;2022-11-13T04:58:42;13.40;;;7.68;;
22024;SDS011;11176;51.448;6.650;2022-11-13T05:01:27;11.60;;;8.40;;
22024;SDS011;11176;51.448;6.650;2022-11-13T05:04:13;12.23;;;8.23;;
22024;SDS011;11176;51.448;6.650;2022-11-13T05:06:59;11.80;;;7.93;;
22024;SDS011;11176;51.448;6.650;2022-11-13T05:09:44;13.20;;;8.27;;
22024;SDS011;11176;51.448;6.650;2022-11-13T05:12:29;12.73;;;8.35;;
22024;SDS011;11176;51.448;6.650;2022-11-13T05:15:14;14.35;;;8.27;;
22024;SDS011;11176;51.448;6.650;2022-11-13T05:17:59;14.23;;;8.70;;
22024;SDS011;11176;51.448;6.650;2022-11-13T05:20:44;12.45;;;7.93;;
22024;SDS011;11176;51.448;6.650;2022-11-13T05:23:29;10.93;;;7.78;;
22024;SDS011;11176;51.448;6.650;2022-11-13T05:26:14;11.77;;;7.78;;
22024;SDS011;11176;51.448;6.650;2022-11-13T05:29:00;11.60;;;7.53;;
22024;SDS011;11176;51.448;6.650;2022-11-13T05:31:45;12.70;;;7.97;;
22024;SDS011;11176;51.448;6.650;2022-11-13T05:34:30;13.63;;;8.38;;
22024;SDS011;11176;51.448;6.650;2022-11-13T05:37:15;11.18;;;8.25;;
22024;SDS011;11176;51.448;6.650;2022-11-13T05:40:00;12.82;;;8.40;;
22024;SDS011;11176;51.448;6.650;2022-11-13T05:42:45;11.85;;;8.88;;
22024;SDS011;11176;51.448;6.650;2022-11-13T05:45:30;11.52;;;7.78;;
22024;SDS011;11176;51.448;6.650;2022-11-13T05:48:15;13.02;;;9.07;;
22024;SDS011;11176;51.448;6.650;2022-11-13T05:51:04;11.60;;;8.15;;
22024;SDS011;11176;51.448;6.650;2022-11-13T05:53:53;12.77;;;8.88;;
22024;SDS011;11176;51.448;6.650;2022-11-13T05:56:39;12.48;;;8.45;;
22024;SDS011;11176;51.448;6.650;2022-11-13T05:59:24;11.95;;;8.65;;
22024;SDS011;11176;51.448;6.650;2022-11-13T06:02:09;11.65;;;8.07;;
22024;SDS011;11176;51.448;6.650;2022-11-13T06:04:54;10.82;;;8.02;;
22024;SDS011;11176;51.448;6.650;2022-11-13T06:07:40;13.07;;;8.48;;
22024;SDS011;11176;51.448;6.650;2022-11-13T06:10:25;12.55;;;8.30;;
22024;SDS011;11176;51.448;6.650;2022-11-13T06:13:10;13.52;;;8.40;;
22024;SDS011;11176;51.448;6.650;2022-11-13T06:16:03;11.68;;;8.13;;
22024;SDS011;11176;51.448;6.650;2022-11-13T06:18:50;12.90;;;9.15;;
22024;SDS011;11176;51.448;6.650;2022-11-13T06:21:39;12.27;;;7.80;;
22024;SDS011;11176;51.448;6.650;2022-11-13T06:24:24;13.15;;;7.95;;
22024;SDS011;11176;51.448;6.650;2022-11-13T06:27:09;10.88;;;7.65;;
22024;SDS011;11176;51.448;6.650;2022-11-13T06:29:54;10.73;;;7.78;;
22024;SDS011;11176;51.448;6.650;2022-11-13T06:32:39;12.90;;;8.38;;
22024;SDS011;11176;51.448;6.650;2022-11-13T06:35:24;14.30;;;7.95;;
22024;SDS011;11176;51.448;6.650;2022-11-13T06:38:09;11.07;;;7.90;;
22024;SDS011;11176;51.448;6.650;2022-11-13T06:40:55;10.98;;;7.75;;
22024;SDS011;11176;51.448;6.650;2022-11-13T06:43:40;12.00;;;7.57;;
22024;SDS011;11176;51.448;6.650;2022-11-13T06:46:26;11.23;;;7.80;;
22024;SDS011;11176;51.448;6.650;2022-11-13T06:49:13;12.25;;;7.65;;
22024;SDS011;11176;51.448;6.650;2022-11-13T06:51:58;12.20;;;8.02;;
22024;SDS011;11176;51.448;6.650;2022-11-13T06:54:42;11.10;;;8.30;;
22024;SDS011;11176;51.448;6.650;2022-11-13T06:57:27;10.65;;;7.78;;
22024;SDS011;11176;51.448;6.650;2022-11-13T07:00:12;11.52;;;7.93;;
22024;SDS011;11176;51.448;6.650;2022-11-13T07:02:58;10.60;;;8.45;;
22024;SDS011;11176;51.448;6.650;2022-11-13T07:05:43;11.70;;;7.93;;
22024;SDS011;11176;51.448;6.650;2022-11-13T07:08:29;11.95;;;8.65;;
22024;SDS011;11176;51.448;6.650;2022-11-13T07:11:16;13.95;;;9.20;;
22024;SDS011;11176;51.448;6.650;2022-11-13T07:14:02;13.45;;;9.15;;
22024;SDS011;11176;51.448;6.650;2022-11-13T07:16:47;11.82;;;8.48;;
22024;SDS011;11176;51.448;6.650;2022-11-13T07:19:53;12.20;;;8.90;;
22024;SDS011;11176;51.448;6.650;2022-11-13T07:22:38;14.52;;;9.27;;
22024;SDS011;11176;51.448;6.650;2022-11-13T07:25:23;12.68;;;8.95;;
22024;SDS011;11176;51.448;6.650;2022-11-13T07:28:08;12.00;;;9.20;;
22024;SDS011;11176;51.448;6.650;2022-11-13T07:30:56;14.85;;;9.60;;
22024;SDS011;11176;51.448;6.650;2022-11-13T07:33:42;12.85;;;9.15;;
22024;SDS011;11176;51.448;6.650;2022-11-13T07:36:28;12.55;;;9.57;;
22024;SDS011;11176;51.448;6.650;2022-11-13T07:39:13;12.30;;;8.68;;
22024;SDS011;11176;51.448;6.650;2022-11-13T07:41:58;13.15;;;8.82;;
22024;SDS011;11176;51.448;6.650;2022-11-13T07:44:42;11.52;;;9.05;;
22024;SDS011;11176;51.448;6.650;2022-11-13T07:47:43;10.80;;;8.32;;
22024;SDS011;11176;51.448;6.650;2022-11-13T07:50:29;11.55;;;8.65;;
22024;SDS011;11176;51.448;6.650;2022-11-13T07:53:17;10.32;;;8.27;;
22024;SDS011;11176;51.448;6.650;2022-11-13T07:56:02;11.38;;;8.35;;
22024;SDS011;11176;51.448;6.650;2022-11-13T07:58:48;12.02;;;9.02;;
22024;SDS011;11176;51.448;6.650;2022-11-13T08:01:33;11.07;;;8.48;;
22024;SDS011;11176;51.448;6.650;2022-11-13T08:04:18;11.50;;;8.77;;
22024;SDS011;11176;51.448;6.650;2022-11-13T08:07:04;13.80;;;9.05;;
22024;SDS011;11176;51.448;6.650;2022-11-13T08:09:49;12.38;;;9.30;;
22024;SDS011;11176;51.448;6.650;2022-11-13T08:12:34;12.63;;;9.55;;
22024;SDS011;11176;51.448;6.650;2022-11-13T08:15:19;13.73;;;9.43;;
22024;SDS011;11176;51.448;6.650;2022-11-13T08:18:04;12.98;;;8.75;;
22024;SDS011;11176;51.448;6.650;2022-11-13T08:20:50;14.73;;;8.98;;
22024;SDS011;11176;51.448;6.650;2022-11-13T08:23:35;15.43;;;8.98;;
22024;SDS011;11176;51.448;6.650;2022-11-13T08:26:21;11.90;;;8.85;;
22024;SDS011;11176;51.448;6.650;2022-11-13T08:29:07;10.88;;;8.55;;
22024;SDS011;11176;51.448;6.650;2022-11-13T08:31:53;12.80;;;8.90;;
22024;SDS011;11176;51.448;6.650;2022-11-13T08:34:37;12.90;;;8.70;;
22024;SDS011;11176;51.448;6.650;2022-11-13T08:37:22;13.45;;;8.23;;
22024;SDS011;11176;51.448;6.650;2022-11-13T08:40:07;10.05;;;7.43;;
22024;SDS011;11176;51.448;6.650;2022-11-13T08:42:57;9.57;;;7.18;;
22024;SDS011;11176;51.448;6.650;2022-11-13T08:45:44;10.45;;;7.03;;
22024;SDS011;11176;51.448;6.650;2022-11-13T08:48:30;9.82;;;6.97;;
22024;SDS011;11176;51.448;6.650;2022-11-13T08:51:16;11.52;;;7.35;;
22024;SDS011;11176;51.448;6.650;2022-11-13T08:54:02;9.38;;;6.60;;
22024;SDS011;11176;51.448;6.650;2022-11-13T08:56:47;11.18;;;6.43;;
22024;SDS011;11176;51.448;6.650;2022-11-13T08:59:39;9.10;;;6.53;;
22024;SDS011;11176;51.448;6.650;2022-11-13T09:02:24;7.97;;;5.82;;
22024;SDS011;11176;51.448;6.650;2022-11-13T09:05:10;8.48;;;5.60;;
22024;SDS011;11176;51.448;6.650;2022-11-13T09:07:56;8.38;;;5.70;;
22024;SDS011;11176;51.448;6.650;2022-11-13T09:10:42;8.38;;;5.82;;
22024;SDS011;11176;51.448;6.650;2022-11-13T09:13:29;8.57;;;5.82;;
22024;SDS011;11176;51.448;6.650;2022-11-13T09:16:14;9.60;;;5.68;;
22024;SDS011;11176;51.448;6.650;2022-11-13T09:18:59;8.77;;;5.68;;
22024;SDS011;11176;51.448;6.650;2022-11-13T09:21:44;8.38;;;5.47;;
22024;SDS011;11176;51.448;6.650;2022-11-13T09:24:30;8.32;;;5.88;;
22024;SDS011;11176;51.448;6.650;2022-11-13T09:27:16;7.28;;;5.55;;
22024;SDS011;11176;51.448;6.650;2022-11-13T09:30:02;11.07;;;6.53;;
22024;SDS011;11176;51.448;6.650;2022-11-13T09:32:51;9.85;;;6.07;;
22024;SDS011;11176;51.448;6.650;2022-11-13T09:35:36;7.53;;;4.93;;
22024;SDS011;11176;51.448;6.650;2022-11-13T09:38:21;7.85;;;5.30;;
22024;SDS011;11176;51.448;6.650;2022-11-13T09:41:08;8.10;;;4.97;;
22024;SDS011;11176;51.448;6.650;2022-11-13T09:43:59;9.57;;;5.25;;
22024;SDS011;11176;51.448;6.650;2022-11-13T09:46:55;9.23;;;5.20;;
22024;SDS011;11176;51.448;6.650;2022-11-13T09:50:05;5.95;;;4.15;;
22024;SDS011;11176;51.448;6.650;2022-11-13T09:52:58;8.05;;;4.63;;
22024;SDS011;11176;51.448;6.650;2022-11-13T09:55:47;8.45;;;4.18;;
22024;SDS011;11176;51.448;6.650;2022-11-13T09:58:48;9.93;;;6.22;;
22024;SDS011;11176;51.448;6.650;2022-11-13T10:05:02;6.63;;;4.53;;
22024;SDS011;11176;51.448;6.650;2022-11-13T10:10:54;6.00;;;4.38;;
22024;SDS011;11176;51.448;6.650;2022-11-13T10:13:43;5.85;;;3.97;;
22024;SDS011;11176;51.448;6.650;2022-11-13T10:16:32;7.60;;;4.57;;
22024;SDS011;11176;51.448;6.650;2022-11-13T10:22:17;8.70;;;5.15;;
22024;SDS011;11176;51.448;6.650;2022-11-13T10:25:25;5.63;;;3.70;;
22024;SDS011;11176;51.448;6.650;2022-11-13T10:28:17;5.88;;;4.00;;
22024;SDS011;11176;51.448;6.650;2022-11-13T10:31:24;6.15;;;4.00;;
22024;SDS011;11176;51.448;6.650;2022-11-13T10:34:09;6.28;;;3.90;;
22024;SDS011;11176;51.448;6.650;2022-11-13T10:37:59;5.93;;;3.90;;
22024;SDS011;11176;51.448;6.650;2022-11-13T10:40:26;5.63;;;3.75;;
22024;SDS011;11176;51.448;6.650;2022-11-13T10:43:17;5.68;;;3.75;;
22024;SDS011;11176;51.448;6.650;2022-11-13T10:46:15;6.13;;;3.13;;
22024;SDS011;11176;51.448;6.650;2022-11-13T10:49:11;5.18;;;3.33;;
22024;SDS011;11176;51.448;6.650;2022-11-13T10:51:57;5.07;;;2.92;;
22024;SDS011;11176;51.448;6.650;2022-11-13T10:54:44;4.93;;;3.10;;
22024;SDS011;11176;51.448;6.650;2022-11-13T10:57:30;5.05;;;3.00;;
22024;SDS011;11176;51.448;6.650;2022-11-13T11:00:19;5.70;;;2.85;;
22024;SDS011;11176;51.448;6.650;2022-11-13T11:03:12;5.50;;;3.10;;
22024;SDS011;11176;51.448;6.650;2022-11-13T11:06:03;6.90;;;2.97;;
22024;SDS011;11176;51.448;6.650;2022-11-13T11:08:49;4.18;;;2.50;;
22024;SDS011;11176;51.448;6.650;2022-11-13T11:11:34;5.07;;;2.58;;
22024;SDS011;11176;51.448;6.650;2022-11-13T11:14:40;4.63;;;2.92;;
22024;SDS011;11176;51.448;6.650;2022-11-13T11:17:37;6.63;;;3.53;;
22024;SDS011;11176;51.448;6.650;2022-11-13T11:20:43;6.18;;;3.42;;
22024;SDS011;11176;51.448;6.650;2022-11-13T11:26:26;5.80;;;2.78;;
22024;SDS011;11176;51.448;6.650;2022-11-13T11:35:15;4.97;;;2.90;;
22024;SDS011;11176;51.448;6.650;2022-11-13T11:38:07;5.95;;;3.30;;
22024;SDS011;11176;51.448;6.650;2022-11-13T11:41:02;6.93;;;3.45;;
22024;SDS011;11176;51.448;6.650;2022-11-13T11:47:15;7.77;;;3.90;;
22024;SDS011;11176;51.448;6.650;2022-11-13T11:50:02;7.40;;;4.05;;
22024;SDS011;11176;51.448;6.650;2022-11-13T11:53:11;6.90;;;3.80;;
22024;SDS011;11176;51.448;6.650;2022-11-13T11:59:03;7.72;;;4.45;;
22024;SDS011;11176;51.448;6.650;2022-11-13T12:02:14;7.95;;;4.00;;
22024;SDS011;11176;51.448;6.650;2022-11-13T12:05:21;7.30;;;3.90;;
22024;SDS011;11176;51.448;6.650;2022-11-13T12:20:56;4.47;;;2.60;;
22024;SDS011;11176;51.448;6.650;2022-11-13T12:26:52;4.88;;;2.95;;
22024;SDS011;11176;51.448;6.650;2022-11-13T12:30:07;6.35;;;2.85;;
22024;SDS011;11176;51.448;6.650;2022-11-13T12:36:08;6.70;;;3.42;;
22024;SDS011;11176;51.448;6.650;2022-11-13T12:42:01;5.82;;;3.15;;
22024;SDS011;11176;51.448;6.650;2022-11-13T12:44:59;5.95;;;3.20;;
22024;SDS011;11176;51.448;6.650;2022-11-13T12:47:48;5.85;;;3.25;;
22024;SDS011;11176;51.448;6.650;2022-11-13T12:50:35;5.82;;;3.15;;
22024;SDS011;11176;51.448;6.650;2022-11-13T12:53:25;5.68;;;3.47;;
22024;SDS011;11176;51.448;6.650;2022-11-13T12:59:24;6.00;;;3.42;;
22024;SDS011;11176;51.448;6.650;2022-11-13T13:05:31;8.95;;;4.10;;
22024;SDS011;11176;51.448;6.650;2022-11-13T13:12:03;9.35;;;5.65;;
22024;SDS011;11176;51.448;6.650;2022-11-13T13:15:00;9.75;;;6.20;;
22024;SDS011;11176;51.448;6.650;2022-11-13T13:23:52;11.07;;;6.20;;
22024;SDS011;11176;51.448;6.650;2022-11-13T13:26:43;10.63;;;6.18;;
22024;SDS011;11176;51.448;6.650;2022-11-13T13:29:31;8.70;;;6.23;;
22024;SDS011;11176;51.448;6.650;2022-11-13T13:35:42;11.68;;;5.60;;
22024;SDS011;11176;51.448;6.650;2022-11-13T13:38:28;8.98;;;5.13;;
22024;SDS011;11176;51.448;6.650;2022-11-13T13:41:23;7.85;;;4.72;;
22024;SDS011;11176;51.448;6.650;2022-11-13T13:44:23;8.27;;;4.85;;
22024;SDS011;11176;51.448;6.650;2022-11-13T13:47:34;7.05;;;3.90;;
22024;SDS011;11176;51.448;6.650;2022-11-13T13:50:32;7.20;;;4.57;;
22024;SDS011;11176;51.448;6.650;2022-11-13T13:53:26;5.25;;;3.90;;
22024;SDS011;11176;51.448;6.650;2022-11-13T13:56:18;6.18;;;4.13;;
22024;SDS011;11176;51.448;6.650;2022-11-13T13:59:05;6.32;;;4.07;;
22024;SDS011;11176;51.448;6.650;2022-11-13T14:01:58;8.32;;;4.53;;
22024;SDS011;11176;51.448;6.650;2022-11-13T14:04:50;8.65;;;4.70;;
22024;SDS011;11176;51.448;6.650;2022-11-13T14:07:36;8.40;;;4.70;;
22024;SDS011;11176;51.448;6.650;2022-11-13T14:10:29;5.43;;;4.03;;
22024;SDS011;11176;51.448;6.650;2022-11-13T14:13:33;6.68;;;4.75;;
22024;SDS011;11176;51.448;6.650;2022-11-13T14:16:18;6.67;;;4.80;;
22024;SDS011;11176;51.448;6.650;2022-11-13T14:19:03;5.82;;;4.32;;
22024;SDS011;11176;51.448;6.650;2022-11-13T14:21:49;6.45;;;4.80;;
22024;SDS011;11176;51.448;6.650;2022-11-13T14:24:44;7.63;;;4.75;;
22024;SDS011;11176;51.448;6.650;2022-11-13T14:27:33;6.82;;;4.47;;
22024;SDS011;11176;51.448;6.650;2022-11-13T14:30:25;7.95;;;4.40;;
22024;SDS011;11176;51.448;6.650;2022-11-13T14:36:05;6.70;;;4.45;;
22024;SDS011;11176;51.448;6.650;2022-11-13T14:38:51;6.43;;;4.38;;
22024;SDS011;11176;51.448;6.650;2022-11-13T14:41:48;6.40;;;4.50;;
22024;SDS011;11176;51.448;6.650;2022-11-13T14:44:37;8.55;;;4.13;;
22024;SDS011;11176;51.448;6.650;2022-11-13T14:47:26;9.07;;;4.65;;
22024;SDS011;11176;51.448;6.650;2022-11-13T14:50:18;6.13;;;4.15;;
22024;SDS011;11176;51.448;6.650;2022-11-13T14:53:08;7.00;;;4.05;;
22024;SDS011;11176;51.448;6.650;2022-11-13T14:55:55;6.97;;;3.85;;
22024;SDS011;11176;51.448;6.650;2022-11-13T14:58:46;6.70;;;3.50;;
22024;SDS011;11176;51.448;6.650;2022-11-13T15:01:31;7.63;;;4.13;;
22024;SDS011;11176;51.448;6.650;2022-11-13T15:04:16;6.45;;;4.20;;
22024;SDS011;11176;51.448;6.650;2022-11-13T15:07:02;7.30;;;3.90;;
22024;SDS011;11176;51.448;6.650;2022-11-13T15:10:02;5.63;;;4.10;;
22024;SDS011;11176;51.448;6.650;2022-11-13T15:12:48;6.15;;;3.67;;
22024;SDS011;11176;51.448;6.650;2022-11-13T15:15:33;6.63;;;4.00;;
22024;SDS011;11176;51.448;6.650;2022-11-13T15:18:18;5.97;;;3.78;;
22024;SDS011;11176;51.448;6.650;2022-11-13T15:21:04;6.82;;;4.22;;
22024;SDS011;11176;51.448;6.650;2022-11-13T15:23:49;7.30;;;4.22;;
22024;SDS011;11176;51.448;6.650;2022-11-13T15:26:34;5.60;;;3.78;;
22024;SDS011;11176;51.448;6.650;2022-11-13T15:29:19;7.50;;;3.88;;
22024;SDS011;11176;51.448;6.650;2022-11-13T15:32:04;5.88;;;3.85;;
22024;SDS011;11176;51.448;6.650;2022-11-13T15:34:49;6.97;;;3.70;;
22024;SDS011;11176;51.448;6.650;2022-11-13T15:37:34;6.35;;;4.15;;
22024;SDS011;11176;51.448;6.650;2022-11-13T15:40:18;5.65;;;3.75;;
22024;SDS011;11176;51.448;6.650;2022-11-13T15:43:05;7.03;;;3.67;;
22024;SDS011;11176;51.448;6.650;2022-11-13T15:45:53;5.60;;;3.50;;
22024;SDS011;11176;51.448;6.650;2022-11-13T15:48:38;6.28;;;3.90;;
22024;SDS011;11176;51.448;6.650;2022-11-13T15:51:24;8.85;;;4.40;;
22024;SDS011;11176;51.448;6.650;2022-11-13T15:54:18;7.10;;;3.75;;
22024;SDS011;11176;51.448;6.650;2022-11-13T15:57:25;6.18;;;4.07;;
22024;SDS011;11176;51.448;6.650;2022-11-13T16:00:14;6.28;;;3.70;;
22024;SDS011;11176;51.448;6.650;2022-11-13T16:03:05;6.15;;;3.78;;
22024;SDS011;11176;51.448;6.650;2022-11-13T16:05:56;7.60;;;4.35;;
22024;SDS011;11176;51.448;6.650;2022-11-13T16:08:42;7.93;;;4.68;;
22024;SDS011;11176;51.448;6.650;2022-11-13T16:11:28;8.52;;;4.50;;
22024;SDS011;11176;51.448;6.650;2022-11-13T16:14:18;6.97;;;4.82;;
22024;SDS011;11176;51.448;6.650;2022-11-13T16:17:16;8.32;;;4.50;;
22024;SDS011;11176;51.448;6.650;2022-11-13T16:20:03;9.57;;;4.88;;
22024;SDS011;11176;51.448;6.650;2022-11-13T16:22:51;9.52;;;5.05;;
22024;SDS011;11176;51.448;6.650;2022-11-13T16:25:37;9.55;;;5.60;;
22024;SDS011;11176;51.448;6.650;2022-11-13T16:28:22;8.90;;;5.57;;
22024;SDS011;11176;51.448;6.650;2022-11-13T16:31:07;11.07;;;5.65;;
22024;SDS011;11176;51.448;6.650;2022-11-13T16:33:51;9.82;;;6.18;;
22024;SDS011;11176;51.448;6.650;2022-11-13T16:36:36;10.27;;;5.95;;
22024;SDS011;11176;51.448;6.650;2022-11-13T16:39:22;9.15;;;5.85;;
22024;SDS011;11176;51.448;6.650;2022-11-13T16:42:07;8.25;;;5.25;;
22024;SDS011;11176;51.448;6.650;2022-11-13T16:44:52;8.73;;;5.32;;
22024;SDS011;11176;51.448;6.650;2022-11-13T16:47:37;6.68;;;4.93;;
22024;SDS011;11176;51.448;6.650;2022-11-13T16:50:23;6.88;;;4.72;;
22024;SDS011;11176;51.448;6.650;2022-11-13T16:53:12;6.50;;;4.70;;
22024;SDS011;11176;51.448;6.650;2022-11-13T16:55:57;7.53;;;4.57;;
22024;SDS011;11176;51.448;6.650;2022-11-13T16:58:42;8.02;;;5.32;;
22024;SDS011;11176;51.448;6.650;2022-11-13T17:01:27;7.95;;;5.35;;
22024;SDS011;11176;51.448;6.650;2022-11-13T17:04:13;9.07;;;4.90;;
22024;SDS011;11176;51.448;6.650;2022-11-13T17:07:01;6.80;;;4.88;;
22024;SDS011;11176;51.448;6.650;2022-11-13T17:09:45;9.95;;;5.97;;
22024;SDS011;11176;51.448;6.650;2022-11-13T17:12:51;8.90;;;5.90;;
22024;SDS011;11176;51.448;6.650;2022-11-13T17:15:37;7.57;;;5.30;;
22024;SDS011;11176;51.448;6.650;2022-11-13T17:18:22;9.32;;;5.93;;
22024;SDS011;11176;51.448;6.650;2022-11-13T17:21:07;10.10;;;5.40;;
22024;SDS011;11176;51.448;6.650;2022-11-13T17:23:55;7.43;;;5.22;;
22024;SDS011;11176;51.448;6.650;2022-11-13T17:26:41;9.07;;;5.70;;
22024;SDS011;11176;51.448;6.650;2022-11-13T17:29:26;7.80;;;5.63;;
22024;SDS011;11176;51.448;6.650;2022-11-13T17:32:11;8.05;;;5.57;;
22024;SDS011;11176;51.448;6.650;2022-11-13T17:34:56;10.02;;;5.82;;
22024;SDS011;11176;51.448;6.650;2022-11-13T17:37:42;9.25;;;6.30;;
22024;SDS011;11176;51.448;6.650;2022-11-13T17:40:27;10.45;;;6.72;;
22024;SDS011;11176;51.448;6.650;2022-11-13T17:43:12;11.18;;;7.22;;
22024;SDS011;11176;51.448;6.650;2022-11-13T17:45:58;10.40;;;6.65;;
22024;SDS011;11176;51.448;6.650;2022-11-13T17:48:43;11.88;;;7.15;;
22024;SDS011;11176;51.448;6.650;2022-11-13T17:51:28;9.68;;;7.20;;
22024;SDS011;11176;51.448;6.650;2022-11-13T17:54:14;9.20;;;6.82;;